Time;durP1;ratioP1;P1;durP2;ratioP2;P2;SDS_P1;SDS_P2;PMS_P1;PMS_P2;Temp;Humidity;BMP_temperature;BMP_pressure;BME280_temperature;BME280_humidity;BME280_pressure;Samples;Min_cycle;Max_cycle;Signal;HPM_P1;HPM_P2
2024/01/21 00:02:14;;;;;;;16.23;11.70;;;-2.90;99.90;;;;;;5011504;28;20172;-71
2024/01/21 00:04:40;;;;;;;17.27;11.33;;;-2.90;99.90;;;;;;5012780;28;20640;-71
2024/01/21 00:07:06;;;;;;;14.83;11.50;;;-2.90;99.90;;;;;;5012994;28;20164;-71
2024/01/21 00:09:31;;;;;;;14.03;10.97;;;-2.80;99.90;;;;;;5029392;28;20671;-71
2024/01/21 00:11:57;;;;;;;20.20;12.93;;;-2.80;99.90;;;;;;5032554;28;20180;-71
2024/01/21 00:14:23;;;;;;;19.93;11.87;;;-2.90;99.90;;;;;;5032595;28;20663;-71
2024/01/21 00:16:48;;;;;;;18.53;12.87;;;-2.80;99.90;;;;;;5032609;28;20650;-71
2024/01/21 00:19:14;;;;;;;14.10;11.23;;;-2.60;99.90;;;;;;5032031;28;20556;-71
2024/01/21 00:21:39;;;;;;;21.60;12.60;;;-2.70;99.90;;;;;;5032125;28;20195;-71
2024/01/21 00:24:05;;;;;;;17.50;11.83;;;-2.50;99.90;;;;;;5016603;28;20318;-70
2024/01/21 00:26:31;;;;;;;17.90;12.30;;;-2.60;99.90;;;;;;5012247;28;20192;-71
2024/01/21 00:29:00;;;;;;;15.60;11.93;;;-2.40;99.90;;;;;;5012424;28;20200;-71
2024/01/21 00:31:27;;;;;;;18.27;13.27;;;-2.40;99.90;;;;;;5013256;28;20264;-71
2024/01/21 00:33:52;;;;;;;20.17;11.77;;;-2.40;99.90;;;;;;5012197;28;20204;-71
2024/01/21 00:36:18;;;;;;;17.80;11.97;;;-2.40;99.90;;;;;;5012310;28;20548;-71
2024/01/21 00:38:44;;;;;;;17.83;10.93;;;-2.50;99.90;;;;;;5010670;28;20682;-72
2024/01/21 00:41:13;;;;;;;12.53;11.03;;;-2.30;99.90;;;;;;5025875;28;20172;-71
2024/01/21 00:43:39;;;;;;;17.67;13.13;;;-2.40;99.90;;;;;;5031908;28;20250;-71
2024/01/21 00:46:05;;;;;;;18.93;11.33;;;-2.40;99.90;;;;;;5031808;28;20565;-71
2024/01/21 00:48:32;;;;;;;16.77;11.90;;;-2.30;99.90;;;;;;5031743;28;20187;-73
2024/01/21 00:50:57;;;;;;;15.73;11.57;;;-2.40;99.90;;;;;;5024393;28;20184;-71
2024/01/21 00:53:23;;;;;;;16.13;12.70;;;-2.30;99.90;;;;;;5013278;28;20694;-71
2024/01/21 00:55:49;;;;;;;19.27;12.97;;;-2.30;99.90;;;;;;5012171;28;20210;-72
2024/01/21 00:58:14;;;;;;;18.17;13.40;;;-2.30;99.90;;;;;;5011804;28;20665;-71
2024/01/21 01:00:40;;;;;;;19.43;12.80;;;-2.20;99.90;;;;;;5011538;28;20164;-70
2024/01/21 01:03:05;;;;;;;14.73;13.00;;;-2.10;99.90;;;;;;5012163;28;20617;-71
2024/01/21 01:05:31;;;;;;;16.07;13.27;;;-2.20;99.90;;;;;;5015714;28;20230;-71
2024/01/21 01:07:56;;;;;;;16.63;13.13;;;-2.30;99.90;;;;;;5031360;28;20199;-71
2024/01/21 01:10:22;;;;;;;24.97;15.87;;;-2.20;99.90;;;;;;5030656;28;20314;-71
2024/01/21 01:12:48;;;;;;;15.93;13.30;;;-2.30;99.90;;;;;;5031484;28;20253;-71
2024/01/21 01:15:13;;;;;;;19.87;14.37;;;-2.20;99.90;;;;;;5031049;28;20538;-71
2024/01/21 01:17:39;;;;;;;24.10;15.13;;;-2.00;99.90;;;;;;5031017;28;20196;-71
2024/01/21 01:20:05;;;;;;;23.40;15.13;;;-2.00;99.90;;;;;;5029976;28;20182;-71
2024/01/21 01:22:31;;;;;;;21.90;14.67;;;-2.10;99.90;;;;;;5027480;28;20261;-70
2024/01/21 01:24:57;;;;;;;26.70;14.67;;;-2.00;99.90;;;;;;5010217;28;20230;-70
2024/01/21 01:27:24;;;;;;;23.87;15.03;;;-2.00;99.90;;;;;;5010125;28;20255;-71
2024/01/21 01:29:50;;;;;;;25.23;15.33;;;-1.90;99.90;;;;;;5010053;28;20198;-71
2024/01/21 01:32:16;;;;;;;26.63;16.17;;;-1.90;99.90;;;;;;5012075;28;20238;-71
2024/01/21 01:34:42;;;;;;;27.63;16.00;;;-1.90;99.90;;;;;;5015779;28;20175;-71
2024/01/21 01:37:09;;;;;;;25.53;15.70;;;-1.90;99.90;;;;;;5016697;28;20172;-71
2024/01/21 01:39:35;;;;;;;33.77;17.37;;;-1.90;99.90;;;;;;5035867;28;20619;-71
2024/01/21 01:42:01;;;;;;;23.40;14.33;;;-1.70;99.90;;;;;;5036368;28;20179;-71
2024/01/21 01:44:27;;;;;;;24.60;14.93;;;-1.90;99.90;;;;;;5035555;28;20195;-71
2024/01/21 01:46:52;;;;;;;24.43;15.03;;;-1.90;99.90;;;;;;5036183;28;20558;-71
2024/01/21 01:49:20;;;;;;;20.47;14.40;;;-1.70;99.90;;;;;;5035550;28;20211;-72
2024/01/21 01:51:46;;;;;;;29.90;16.17;;;-1.70;99.90;;;;;;5033961;28;20183;-71
2024/01/21 01:54:11;;;;;;;32.30;17.90;;;-1.60;99.90;;;;;;5034854;28;20214;-71
2024/01/21 01:56:39;;;;;;;28.67;15.63;;;-1.70;99.90;;;;;;5034646;28;20176;-71
2024/01/21 01:59:09;;;;;;;25.40;15.53;;;-1.80;99.90;;;;;;5034642;28;20238;-70
2024/01/21 02:01:36;;;;;;;34.80;17.20;;;-1.70;99.90;;;;;;5034774;28;20180;-71
2024/01/21 02:04:03;;;;;;;26.07;15.63;;;-1.70;99.90;;;;;;5034923;28;20175;-71
2024/01/21 02:06:29;;;;;;;20.17;13.40;;;-1.70;99.90;;;;;;5020372;28;20188;-71
2024/01/21 02:08:54;;;;;;;20.57;14.40;;;-1.50;99.90;;;;;;5014776;28;20196;-71
2024/01/21 02:11:20;;;;;;;21.87;13.20;;;-1.60;99.90;;;;;;5015284;28;20267;-71
2024/01/21 02:13:45;;;;;;;19.57;14.20;;;-1.50;99.90;;;;;;5015230;28;20701;-72
2024/01/21 02:16:11;;;;;;;18.80;13.27;;;-1.70;99.90;;;;;;5015894;28;20180;-71
2024/01/21 02:18:38;;;;;;;20.60;13.93;;;-1.60;99.90;;;;;;5020530;28;20191;-72
2024/01/21 02:21:04;;;;;;;22.73;13.40;;;-1.60;99.90;;;;;;5034442;28;20182;-71
2024/01/21 02:23:30;;;;;;;20.47;13.60;;;-1.70;99.90;;;;;;5034374;28;20179;-71
2024/01/21 02:25:56;;;;;;;19.33;12.87;;;-1.50;99.90;;;;;;5034354;28;20171;-71
2024/01/21 02:28:21;;;;;;;15.90;12.83;;;-1.60;99.90;;;;;;5034195;28;20283;-71
2024/01/21 02:30:47;;;;;;;19.10;13.97;;;-1.50;99.90;;;;;;5034221;28;20187;-71
2024/01/21 02:33:13;;;;;;;18.77;14.03;;;-1.60;99.90;;;;;;5029433;28;20200;-71
2024/01/21 02:35:39;;;;;;;18.17;14.57;;;-1.60;99.90;;;;;;5014304;28;20646;-70
2024/01/21 02:38:04;;;;;;;19.13;14.53;;;-1.70;99.90;;;;;;5015435;28;20202;-70
2024/01/21 02:40:30;;;;;;;15.77;12.93;;;-1.70;99.90;;;;;;5014134;28;20172;-70
2024/01/21 02:42:56;;;;;;;18.20;13.37;;;-1.70;99.90;;;;;;5014246;28;20374;-70
2024/01/21 02:45:22;;;;;;;18.57;14.33;;;-1.80;99.90;;;;;;5014212;28;20184;-71
2024/01/21 02:47:47;;;;;;;18.50;13.27;;;-1.70;99.90;;;;;;5031097;28;20310;-71
2024/01/21 02:50:13;;;;;;;16.93;12.03;;;-1.70;99.90;;;;;;5032486;28;20195;-71
2024/01/21 02:52:38;;;;;;;18.03;12.30;;;-1.70;99.90;;;;;;5033585;28;20207;-70
2024/01/21 02:55:04;;;;;;;23.90;13.17;;;-1.80;99.90;;;;;;5033880;28;20230;-70
2024/01/21 02:57:30;;;;;;;19.57;13.33;;;-1.90;99.90;;;;;;5033654;28;20433;-70
2024/01/21 02:59:56;;;;;;;20.17;13.30;;;-1.90;99.90;;;;;;5033893;28;20521;-71
2024/01/21 03:02:22;;;;;;;19.97;12.53;;;-1.90;99.90;;;;;;5018988;28;20184;-71
2024/01/21 03:04:47;;;;;;;19.03;12.10;;;-1.80;99.90;;;;;;5013791;28;20199;-71
2024/01/21 03:07:13;;;;;;;17.20;12.40;;;-2.00;99.90;;;;;;5012770;28;20172;-71
2024/01/21 03:09:39;;;;;;;17.70;12.83;;;-2.00;99.90;;;;;;5013688;28;20216;-71
2024/01/21 03:12:05;;;;;;;15.70;13.37;;;-2.00;99.90;;;;;;5013787;28;20200;-71
2024/01/21 03:14:31;;;;;;;17.07;13.07;;;-1.90;99.90;;;;;;5020943;28;20203;-71
2024/01/21 03:16:57;;;;;;;17.30;13.73;;;-1.90;99.90;;;;;;5033011;28;20163;-71
2024/01/21 03:19:22;;;;;;;19.67;13.43;;;-2.00;99.90;;;;;;5033228;28;20187;-70
2024/01/21 03:21:48;;;;;;;17.50;12.00;;;-2.10;99.90;;;;;;5033149;28;20190;-70
2024/01/21 03:24:13;;;;;;;15.70;13.20;;;-2.00;99.90;;;;;;5033340;28;20546;-71
2024/01/21 03:26:39;;;;;;;18.47;13.13;;;-2.00;99.90;;;;;;5033095;28;20183;-71
2024/01/21 03:29:05;;;;;;;20.23;13.50;;;-1.80;99.90;;;;;;5031283;28;20195;-71
2024/01/21 03:31:30;;;;;;;17.63;13.17;;;-1.90;99.90;;;;;;5033317;28;20254;-71
2024/01/21 03:33:56;;;;;;;16.00;12.73;;;-2.00;99.90;;;;;;5033039;28;20277;-71
2024/01/21 03:36:21;;;;;;;20.60;12.47;;;-1.80;99.90;;;;;;5032669;28;20171;-71
2024/01/21 03:38:50;;;;;;;17.00;12.93;;;-1.90;99.90;;;;;;5032215;28;20195;-70
2024/01/21 03:41:17;;;;;;;17.93;12.97;;;-1.80;99.90;;;;;;5033007;28;20178;-70
2024/01/21 03:43:43;;;;;;;16.97;11.77;;;-1.90;99.90;;;;;;5032649;28;20350;-70
2024/01/21 03:46:08;;;;;;;24.70;13.00;;;-1.90;99.90;;;;;;5032892;28;20261;-70
2024/01/21 03:48:34;;;;;;;20.30;13.93;;;-1.80;99.90;;;;;;5032595;28;20196;-71
2024/01/21 03:50:59;;;;;;;16.63;12.53;;;-1.70;99.90;;;;;;5032605;28;20191;-71
2024/01/21 03:53:25;;;;;;;19.90;13.40;;;-1.80;99.90;;;;;;5018733;28;20274;-70
2024/01/21 03:55:51;;;;;;;14.70;12.30;;;-1.70;99.90;;;;;;5012131;28;20176;-71
2024/01/21 03:58:16;;;;;;;19.97;13.30;;;-1.80;99.90;;;;;;5029659;28;20202;-70
2024/01/21 04:00:42;;;;;;;16.97;12.33;;;-1.70;99.90;;;;;;5032277;28;20181;-70
2024/01/21 04:03:07;;;;;;;19.80;13.07;;;-1.70;99.90;;;;;;5032804;28;20199;-71
2024/01/21 04:05:33;;;;;;;17.20;11.50;;;-1.70;99.90;;;;;;5032333;28;20219;-71
2024/01/21 04:07:59;;;;;;;19.13;12.87;;;-1.70;99.90;;;;;;5029556;28;20278;-71
2024/01/21 04:10:25;;;;;;;19.63;13.07;;;-1.80;99.90;;;;;;5012616;28;20695;-70
2024/01/21 04:12:51;;;;;;;17.13;12.47;;;-1.70;99.90;;;;;;5012413;28;20200;-70
2024/01/21 04:15:16;;;;;;;18.23;12.50;;;-1.70;99.90;;;;;;5012121;28;20183;-71
2024/01/21 04:17:42;;;;;;;16.73;12.60;;;-1.70;99.90;;;;;;5012777;28;20192;-71
2024/01/21 04:20:08;;;;;;;13.93;11.53;;;-1.80;99.90;;;;;;5011009;28;20176;-71
2024/01/21 04:22:35;;;;;;;25.40;13.13;;;-1.80;99.90;;;;;;5024383;28;20270;-71
2024/01/21 04:25:00;;;;;;;15.93;12.23;;;-1.90;99.90;;;;;;5024096;28;20179;-72
2024/01/21 04:27:26;;;;;;;15.47;12.80;;;-1.80;99.90;;;;;;5012164;28;20535;-72
2024/01/21 04:29:51;;;;;;;19.07;11.60;;;-1.70;99.90;;;;;;5012023;28;20164;-71
2024/01/21 04:32:17;;;;;;;16.53;11.87;;;-1.60;99.90;;;;;;5012483;28;20664;-71
2024/01/21 04:34:43;;;;;;;17.80;12.97;;;-1.60;99.90;;;;;;5011927;28;20449;-71
2024/01/21 04:37:08;;;;;;;17.60;12.13;;;-1.70;99.90;;;;;;5012733;28;20258;-72
2024/01/21 04:39:34;;;;;;;14.00;11.83;;;-1.60;99.90;;;;;;5017658;28;20195;-71
2024/01/21 04:42:00;;;;;;;19.20;13.10;;;-1.60;99.90;;;;;;5030421;28;20178;-71
2024/01/21 04:44:25;;;;;;;17.40;11.93;;;-1.50;99.90;;;;;;5030416;28;20172;-70
2024/01/21 04:46:51;;;;;;;22.90;13.73;;;-1.40;99.90;;;;;;5031625;28;20179;-71
2024/01/21 04:49:17;;;;;;;14.13;11.47;;;-1.50;99.90;;;;;;5031511;28;20685;-70
2024/01/21 04:51:43;;;;;;;17.33;10.47;;;-1.40;99.90;;;;;;5029857;28;20225;-71
2024/01/21 04:54:09;;;;;;;15.13;12.10;;;-1.50;99.90;;;;;;5031635;28;20230;-71
2024/01/21 04:56:36;;;;;;;14.50;10.77;;;-1.30;99.90;;;;;;5032071;28;20191;-71
2024/01/21 04:59:02;;;;;;;17.27;12.33;;;-1.40;99.90;;;;;;5032960;28;20279;-71
2024/01/21 05:01:28;;;;;;;18.87;12.87;;;-1.40;99.90;;;;;;5031598;28;20175;-71
2024/01/21 05:03:53;;;;;;;18.50;12.30;;;-1.20;99.90;;;;;;5021870;28;20685;-71
2024/01/21 05:06:19;;;;;;;18.10;11.53;;;-1.30;99.90;;;;;;5011462;28;20168;-71
2024/01/21 05:08:45;;;;;;;18.53;11.57;;;-1.30;99.90;;;;;;5010867;28;20275;-70
2024/01/21 05:11:13;;;;;;;16.57;11.90;;;-1.20;99.90;;;;;;5011681;28;20210;-71
2024/01/21 05:13:39;;;;;;;19.43;12.80;;;-1.20;99.90;;;;;;5011514;28;20551;-70
2024/01/21 05:16:05;;;;;;;16.83;10.03;;;-1.40;99.90;;;;;;5011612;28;20176;-71
2024/01/21 05:18:30;;;;;;;16.43;10.90;;;-1.40;99.90;;;;;;5019218;28;20218;-70
2024/01/21 05:20:56;;;;;;;15.67;11.70;;;-1.40;99.90;;;;;;5029670;28;20636;-70
2024/01/21 05:23:22;;;;;;;15.40;11.17;;;-1.30;99.90;;;;;;5031488;28;20182;-71
2024/01/21 05:25:50;;;;;;;15.13;11.87;;;-1.30;99.90;;;;;;5030889;28;20186;-71
2024/01/21 05:28:16;;;;;;;17.53;12.50;;;-1.40;99.90;;;;;;5031318;28;20679;-71
2024/01/21 05:30:41;;;;;;;15.30;12.70;;;-1.40;99.90;;;;;;5024312;28;20199;-72
2024/01/21 05:33:07;;;;;;;13.97;11.47;;;-1.30;99.90;;;;;;5011271;28;20212;-71
2024/01/21 05:35:33;;;;;;;17.70;11.43;;;-1.40;99.90;;;;;;5011356;28;20245;-71
2024/01/21 05:37:58;;;;;;;13.30;11.23;;;-1.20;99.90;;;;;;5011343;28;20273;-71
2024/01/21 05:40:25;;;;;;;16.70;12.80;;;-1.40;99.90;;;;;;5011365;28;20666;-71
2024/01/21 05:42:51;;;;;;;17.30;11.07;;;-1.40;99.90;;;;;;5011439;28;20243;-71
2024/01/21 05:45:17;;;;;;;13.37;9.90;;;-1.40;99.90;;;;;;5014638;28;20186;-71
2024/01/21 05:47:43;;;;;;;14.07;10.87;;;-1.20;99.90;;;;;;5031083;28;20191;-72
2024/01/21 05:50:08;;;;;;;17.13;10.23;;;-1.50;99.90;;;;;;5030720;28;20218;-73
2024/01/21 05:52:36;;;;;;;13.73;10.50;;;-1.30;99.90;;;;;;5030932;28;20305;-72
2024/01/21 05:55:05;;;;;;;15.67;11.43;;;-1.50;99.90;;;;;;5030560;28;20532;-73
2024/01/21 05:57:31;;;;;;;13.23;10.33;;;-1.50;99.90;;;;;;5011312;28;20179;-72
2024/01/21 05:59:57;;;;;;;17.07;11.03;;;-1.40;99.90;;;;;;5011001;28;20176;-72
2024/01/21 06:02:22;;;;;;;13.57;10.77;;;-1.50;99.90;;;;;;5011305;28;20168;-71
2024/01/21 06:04:50;;;;;;;13.23;10.30;;;-1.50;99.90;;;;;;5009701;28;20701;-72
2024/01/21 06:07:16;;;;;;;12.47;10.00;;;-1.50;99.90;;;;;;5011235;28;20200;-71
2024/01/21 06:09:41;;;;;;;13.30;10.97;;;-1.40;99.90;;;;;;5010949;28;20188;-72
2024/01/21 06:12:08;;;;;;;13.63;10.63;;;-1.50;99.90;;;;;;5012080;28;20198;-72
2024/01/21 06:14:33;;;;;;;14.67;10.53;;;-1.30;99.90;;;;;;5027371;28;20605;-72
2024/01/21 06:16:59;;;;;;;15.27;11.33;;;-1.40;99.90;;;;;;5030932;28;20251;-72
2024/01/21 06:19:25;;;;;;;15.90;10.77;;;-1.40;99.90;;;;;;5033886;28;20188;-72
2024/01/21 06:21:50;;;;;;;18.80;11.27;;;-1.30;99.90;;;;;;5035075;28;20282;-72
2024/01/21 06:24:17;;;;;;;13.43;11.40;;;-1.40;99.90;;;;;;5034360;28;20176;-72
2024/01/21 06:26:44;;;;;;;11.57;10.00;;;-1.40;99.90;;;;;;5034247;28;20542;-72
2024/01/21 06:29:10;;;;;;;15.77;10.37;;;-1.30;99.90;;;;;;5033820;28;20786;-72
2024/01/21 06:31:35;;;;;;;13.87;11.00;;;-1.40;99.90;;;;;;5034331;28;20250;-72
2024/01/21 06:34:01;;;;;;;14.50;10.80;;;-1.40;99.90;;;;;;5033995;28;20241;-72
2024/01/21 06:36:27;;;;;;;16.07;11.10;;;-1.40;99.90;;;;;;5034201;28;20559;-72
2024/01/21 06:38:52;;;;;;;14.80;10.30;;;-1.30;99.90;;;;;;5033646;28;20203;-73
2024/01/21 06:41:18;;;;;;;15.97;10.43;;;-1.20;99.90;;;;;;5026715;28;20550;-73
2024/01/21 06:43:44;;;;;;;13.60;10.20;;;-1.20;99.90;;;;;;5014293;28;20173;-72
2024/01/21 06:46:10;;;;;;;16.93;11.20;;;-1.20;99.90;;;;;;5014299;28;20172;-72
2024/01/21 06:48:36;;;;;;;12.80;10.83;;;-1.20;99.90;;;;;;5014177;28;20227;-72
2024/01/21 06:51:10;;;;;;;15.80;10.67;;;-1.10;99.90;;;;;;5013873;28;20254;-72
2024/01/21 06:53:39;;;;;;;14.60;10.53;;;-1.00;99.90;;;;;;5014234;28;20198;-72
2024/01/21 06:56:07;;;;;;;12.50;10.37;;;-1.00;99.90;;;;;;5021147;28;20269;-72
2024/01/21 06:58:34;;;;;;;13.43;10.73;;;-1.10;99.90;;;;;;5033829;28;20187;-72
2024/01/21 07:00:59;;;;;;;13.47;10.50;;;-1.00;99.90;;;;;;5025383;28;20724;-73
2024/01/21 07:03:25;;;;;;;10.47;8.93;;;-0.90;99.90;;;;;;5026122;28;20262;-72
2024/01/21 07:05:51;;;;;;;14.73;10.10;;;-1.00;99.90;;;;;;5032941;28;20234;-72
2024/01/21 07:08:17;;;;;;;13.50;11.33;;;-0.80;99.90;;;;;;5022956;28;20195;-72
2024/01/21 07:10:43;;;;;;;12.30;10.10;;;-0.70;99.90;;;;;;5027499;28;20188;-72
2024/01/21 07:13:08;;;;;;;17.53;10.47;;;-0.70;99.90;;;;;;5013670;28;20211;-72
2024/01/21 07:15:34;;;;;;;12.17;10.10;;;-0.70;99.90;;;;;;5014412;28;20180;-72
2024/01/21 07:18:00;;;;;;;13.50;10.17;;;-0.80;99.90;;;;;;5029381;28;20278;-72
2024/01/21 07:20:25;;;;;;;16.00;10.00;;;-0.80;99.90;;;;;;5033327;28;20167;-72
2024/01/21 07:22:51;;;;;;;12.50;10.27;;;-0.80;99.90;;;;;;5022020;28;20176;-73
2024/01/21 07:25:16;;;;;;;15.43;10.17;;;-0.80;99.90;;;;;;5026712;28;20572;-74
2024/01/21 07:27:45;;;;;;;13.97;10.60;;;-0.80;99.90;;;;;;5032728;28;20188;-75
2024/01/21 07:30:11;;;;;;;16.07;10.53;;;-0.70;99.90;;;;;;5031801;28;20807;-74
2024/01/21 07:32:39;;;;;;;15.47;11.03;;;-0.90;99.90;;;;;;5032868;28;20643;-73
2024/01/21 07:35:06;;;;;;;12.53;10.50;;;-0.80;99.90;;;;;;5021147;28;20179;-73
2024/01/21 07:37:31;;;;;;;13.27;10.27;;;-0.90;99.90;;;;;;5013179;28;20164;-73
2024/01/21 07:39:57;;;;;;;13.27;11.20;;;-0.90;99.90;;;;;;5013112;28;20183;-73
2024/01/21 07:42:23;;;;;;;14.30;10.47;;;-0.70;99.90;;;;;;5014739;28;20164;-74
2024/01/21 07:44:48;;;;;;;15.83;10.80;;;-0.70;99.90;;;;;;5012853;28;20184;-73
2024/01/21 07:47:14;;;;;;;16.07;11.07;;;-0.60;99.90;;;;;;5013108;28;20208;-74
2024/01/21 07:49:39;;;;;;;11.37;10.17;;;-0.70;99.90;;;;;;5012741;28;20207;-74
2024/01/21 07:52:06;;;;;;;12.63;11.20;;;-0.50;99.90;;;;;;5012974;28;20676;-74
2024/01/21 07:54:31;;;;;;;12.30;10.20;;;-0.70;99.90;;;;;;5016389;28;20295;-74
2024/01/21 07:56:57;;;;;;;12.20;9.43;;;-0.60;99.90;;;;;;5019965;28;20668;-74
2024/01/21 07:59:22;;;;;;;13.27;10.70;;;-0.50;99.90;;;;;;5016806;28;20195;-74
2024/01/21 08:01:48;;;;;;;13.23;10.17;;;-0.70;99.90;;;;;;5029344;28;20183;-74
2024/01/21 08:04:14;;;;;;;11.53;9.77;;;-0.60;99.90;;;;;;5032912;28;20222;-74
2024/01/21 08:06:41;;;;;;;11.83;10.00;;;-0.50;99.90;;;;;;5023946;28;20273;-74
2024/01/21 08:09:08;;;;;;;17.00;10.20;;;-0.60;99.90;;;;;;5023666;28;20246;-72
2024/01/21 08:11:33;;;;;;;13.10;10.60;;;-0.50;99.90;;;;;;5013011;28;20176;-73
2024/01/21 08:13:59;;;;;;;14.37;10.90;;;-0.50;99.90;;;;;;5022220;28;20738;-74
2024/01/21 08:16:24;;;;;;;14.00;10.87;;;-0.40;99.90;;;;;;5029311;28;20226;-73
2024/01/21 08:18:50;;;;;;;13.20;10.43;;;-0.40;99.90;;;;;;5011972;28;20195;-73
2024/01/21 08:21:15;;;;;;;13.10;10.43;;;-0.30;99.90;;;;;;5018029;28;20190;-73
2024/01/21 08:23:41;;;;;;;15.87;10.87;;;-0.20;99.90;;;;;;5026148;28;20176;-73
2024/01/21 08:26:07;;;;;;;14.87;10.20;;;-0.20;99.90;;;;;;5024564;28;20172;-73
2024/01/21 08:28:32;;;;;;;15.47;11.40;;;0.00;99.90;;;;;;5015744;28;20290;-73
2024/01/21 08:30:58;;;;;;;18.83;11.27;;;-0.10;99.90;;;;;;5027752;28;20226;-73
2024/01/21 08:33:23;;;;;;;16.63;11.70;;;0.20;99.90;;;;;;5012278;28;20207;-73
2024/01/21 08:35:49;;;;;;;11.80;9.80;;;0.30;99.90;;;;;;5013064;28;20520;-73
2024/01/21 08:38:15;;;;;;;13.43;10.20;;;0.40;99.90;;;;;;5029371;28;20198;-73
2024/01/21 08:40:40;;;;;;;12.87;10.53;;;0.50;99.90;;;;;;5015466;28;20644;-73
2024/01/21 08:43:06;;;;;;;12.70;10.33;;;0.50;99.90;;;;;;5032514;28;20182;-73
2024/01/21 08:45:32;;;;;;;11.17;9.97;;;0.70;99.90;;;;;;5015027;28;20184;-74
2024/01/21 08:47:58;;;;;;;15.37;10.47;;;0.70;99.90;;;;;;5030685;28;20533;-74
2024/01/21 08:50:24;;;;;;;11.97;9.80;;;0.70;99.90;;;;;;5032433;28;20179;-73
2024/01/21 08:52:49;;;;;;;11.73;9.43;;;0.60;99.90;;;;;;5018103;28;20269;-74
2024/01/21 08:55:15;;;;;;;15.90;10.63;;;0.80;99.90;;;;;;5019693;28;20176;-74
2024/01/21 08:57:41;;;;;;;13.47;11.20;;;0.70;99.90;;;;;;5028912;28;20224;-74
2024/01/21 09:00:08;;;;;;;12.93;10.43;;;0.80;99.90;;;;;;5014107;28;20190;-74
2024/01/21 09:02:34;;;;;;;15.47;10.23;;;0.90;99.90;;;;;;5015247;28;20648;-74
2024/01/21 09:04:59;;;;;;;14.03;11.00;;;1.00;99.90;;;;;;5020621;28;20185;-74
2024/01/21 09:07:25;;;;;;;14.93;10.87;;;1.10;99.90;;;;;;5021611;28;20180;-74
2024/01/21 09:09:51;;;;;;;15.33;10.67;;;1.30;99.90;;;;;;5017120;28;20164;-75
2024/01/21 09:12:17;;;;;;;14.23;11.30;;;1.30;99.90;;;;;;5013361;28;20203;-74
2024/01/21 09:14:43;;;;;;;14.73;10.30;;;1.40;99.90;;;;;;5012210;28;20265;-75
2024/01/21 09:17:09;;;;;;;13.67;10.27;;;1.60;99.90;;;;;;5024978;28;20228;-75
2024/01/21 09:19:35;;;;;;;14.17;9.73;;;1.70;99.90;;;;;;5027477;28;20730;-75
2024/01/21 09:22:01;;;;;;;15.10;9.77;;;1.90;99.90;;;;;;5018656;28;20176;-75
2024/01/21 09:24:27;;;;;;;11.77;9.77;;;2.00;99.90;;;;;;5027671;28;20582;-75
2024/01/21 09:26:53;;;;;;;15.67;10.40;;;2.20;99.90;;;;;;5021442;28;20186;-75
2024/01/21 09:29:18;;;;;;;11.70;9.90;;;2.50;99.90;;;;;;5017449;28;20274;-74
2024/01/21 09:31:53;;;;;;;12.33;9.60;;;2.60;99.90;;;;;;5026990;28;20186;-74
2024/01/21 09:34:18;;;;;;;12.23;10.30;;;2.70;99.90;;;;;;5015806;28;20289;-74
2024/01/21 09:36:44;;;;;;;15.27;10.30;;;2.80;99.90;;;;;;5026976;28;20255;-74
2024/01/21 09:39:09;;;;;;;10.20;9.13;;;3.00;99.90;;;;;;5013984;28;20210;-75
2024/01/21 09:41:48;;;;;;;12.60;10.07;;;3.10;99.90;;;;;;5024741;28;20183;-74
2024/01/21 09:44:14;;;;;;;12.30;9.50;;;3.10;99.90;;;;;;5023052;28;20266;-75
2024/01/21 09:46:40;;;;;;;14.50;10.90;;;3.10;99.90;;;;;;5029465;28;20643;-75
2024/01/21 09:49:09;;;;;;;16.40;9.43;;;3.20;99.90;;;;;;5030497;28;20195;-73
2024/01/21 09:51:37;;;;;;;12.07;9.97;;;3.40;99.90;;;;;;5023290;28;20176;-73
2024/01/21 09:54:05;;;;;;;11.10;8.93;;;3.50;99.90;;;;;;5027361;28;20243;-74
2024/01/21 09:56:30;;;;;;;14.17;10.33;;;3.60;99.90;;;;;;5027736;28;20180;-74
2024/01/21 09:58:57;;;;;;;12.67;10.57;;;3.70;99.90;;;;;;5024935;28;20199;-74
2024/01/21 10:01:23;;;;;;;12.10;9.90;;;3.80;99.90;;;;;;5025488;28;20271;-73
2024/01/21 10:03:49;;;;;;;16.83;10.87;;;3.80;99.90;;;;;;5027230;28;20290;-74
2024/01/21 10:06:16;;;;;;;14.13;11.03;;;3.80;99.90;;;;;;5027665;28;20632;-74
2024/01/21 10:08:42;;;;;;;15.37;10.43;;;3.80;99.90;;;;;;5014819;28;20199;-73
2024/01/21 10:11:08;;;;;;;15.70;10.77;;;3.80;99.90;;;;;;5015844;28;20187;-74
2024/01/21 10:13:38;;;;;;;14.03;10.83;;;3.80;99.90;;;;;;5022158;28;20239;-73
2024/01/21 10:16:04;;;;;;;11.60;9.43;;;3.70;99.90;;;;;;5020164;28;20187;-73
2024/01/21 10:18:30;;;;;;;13.00;10.10;;;3.70;99.90;;;;;;5015998;28;20200;-74
2024/01/21 10:20:58;;;;;;;14.43;10.87;;;3.70;99.90;;;;;;5016251;28;20648;-73
2024/01/21 10:23:24;;;;;;;11.93;9.00;;;3.70;99.90;;;;;;5017514;28;20184;-74
2024/01/21 10:25:50;;;;;;;13.50;9.37;;;3.60;99.90;;;;;;5019231;28;20180;-74
2024/01/21 10:28:16;;;;;;;17.37;10.60;;;3.60;99.90;;;;;;5014623;28;20199;-74
2024/01/21 10:30:46;;;;;;;13.07;10.03;;;3.60;99.90;;;;;;5014531;28;20206;-74
2024/01/21 10:33:13;;;;;;;13.37;9.73;;;3.60;99.90;;;;;;5014676;28;20299;-74
2024/01/21 10:35:39;;;;;;;11.13;9.47;;;3.60;99.90;;;;;;5014907;28;20168;-73
2024/01/21 10:38:10;;;;;;;11.13;9.97;;;3.60;99.90;;;;;;5014895;28;20668;-73
2024/01/21 10:40:43;;;;;;;12.60;10.33;;;3.80;99.90;;;;;;5014857;28;20183;-73
2024/01/21 10:43:13;;;;;;;15.43;9.97;;;3.90;99.90;;;;;;5014463;28;20172;-73
2024/01/21 10:45:40;;;;;;;11.57;9.27;;;4.10;99.90;;;;;;5023739;28;20191;-73
2024/01/21 10:48:07;;;;;;;11.70;9.83;;;4.20;99.90;;;;;;5034419;28;20204;-73
2024/01/21 10:50:33;;;;;;;11.90;9.53;;;4.30;99.90;;;;;;5034174;28;20183;-73
2024/01/21 10:52:59;;;;;;;12.23;9.00;;;4.30;99.90;;;;;;5034396;28;20191;-73
2024/01/21 10:55:27;;;;;;;15.20;10.10;;;4.30;99.90;;;;;;5034259;28;20620;-73
2024/01/21 10:57:52;;;;;;;14.70;9.67;;;4.40;99.90;;;;;;5034139;28;20194;-73
2024/01/21 11:00:18;;;;;;;12.77;9.67;;;4.50;99.90;;;;;;5025443;28;20260;-73
2024/01/21 11:03:25;;;;;;;12.27;9.53;;;4.50;99.90;;;;;;5014586;28;20261;-73
2024/01/21 11:06:01;;;;;;;13.20;10.07;;;4.50;99.90;;;;;;5013041;28;20196;-73
2024/01/21 11:08:28;;;;;;;10.67;8.63;;;4.60;99.90;;;;;;5013963;28;20292;-73
2024/01/21 11:11:11;;;;;;;15.30;10.13;;;4.60;99.90;;;;;;5013955;28;20188;-73
2024/01/21 11:13:56;;;;;;;12.93;10.33;;;4.60;99.90;;;;;;5023438;28;20207;-73
2024/01/21 11:16:30;;;;;;;10.23;9.13;;;4.80;99.90;;;;;;5033602;28;20202;-72
2024/01/21 11:18:58;;;;;;;10.93;8.47;;;4.80;99.90;;;;;;5033470;28;20468;-72
2024/01/21 11:21:25;;;;;;;11.00;9.10;;;4.80;99.90;;;;;;5017621;28;20204;-72
2024/01/21 11:24:17;;;;;;;13.13;9.13;;;4.70;99.90;;;;;;5013317;28;20238;-71
2024/01/21 11:26:46;;;;;;;11.83;9.73;;;4.60;99.90;;;;;;5014091;28;20564;-71
2024/01/21 11:29:30;;;;;;;14.53;9.80;;;4.50;99.90;;;;;;5012612;28;20219;-71
2024/01/21 11:32:05;;;;;;;11.37;9.50;;;4.50;99.90;;;;;;5013118;28;20554;-71
2024/01/21 11:34:38;;;;;;;13.63;11.03;;;4.50;99.90;;;;;;5013266;28;20209;-71
2024/01/21 11:37:04;;;;;;;13.80;10.13;;;4.60;99.90;;;;;;5013021;28;20177;-71
2024/01/21 11:39:30;;;;;;;13.77;10.10;;;4.60;99.90;;;;;;5018246;28;20264;-71
2024/01/21 11:41:56;;;;;;;14.27;10.40;;;4.60;99.90;;;;;;5032768;28;20176;-72
2024/01/21 11:44:28;;;;;;;11.63;9.90;;;4.60;99.90;;;;;;5032958;28;20175;-71
2024/01/21 11:46:55;;;;;;;17.57;11.90;;;4.70;99.90;;;;;;5033349;28;20180;-71
2024/01/21 11:49:22;;;;;;;13.53;10.27;;;4.60;99.90;;;;;;5032746;28;20593;-73
2024/01/21 11:51:48;;;;;;;12.63;10.17;;;4.60;99.90;;;;;;5032695;28;20184;-71
2024/01/21 11:54:14;;;;;;;15.53;11.63;;;4.50;99.90;;;;;;5029225;28;20220;-73
2024/01/21 11:56:40;;;;;;;14.67;10.10;;;4.60;99.90;;;;;;5016163;28;20176;-73
2024/01/21 11:59:08;;;;;;;15.07;10.23;;;4.60;99.90;;;;;;5016593;28;20973;-74
2024/01/21 12:01:38;;;;;;;12.73;10.07;;;4.70;99.90;;;;;;5017691;28;20180;-74
2024/01/21 12:04:05;;;;;;;16.83;10.77;;;4.80;99.90;;;;;;5015758;28;20176;-72
2024/01/21 12:06:39;;;;;;;17.57;12.03;;;4.90;99.90;;;;;;5013216;28;20194;-73
2024/01/21 12:09:05;;;;;;;12.27;9.80;;;5.00;99.90;;;;;;5032272;28;20269;-72
2024/01/21 12:11:35;;;;;;;14.73;8.97;;;5.10;99.90;;;;;;5034593;28;20183;-75
2024/01/21 12:14:03;;;;;;;11.00;9.13;;;5.10;99.90;;;;;;5039040;28;20286;-75
2024/01/21 12:16:29;;;;;;;10.57;9.47;;;5.10;99.90;;;;;;5036955;28;20259;-71
2024/01/21 12:18:55;;;;;;;12.30;9.07;;;5.00;99.90;;;;;;5031902;28;20321;-72
2024/01/21 12:21:24;;;;;;;15.67;9.10;;;5.00;99.90;;;;;;5032347;28;20172;-72
2024/01/21 12:23:51;;;;;;;10.47;8.37;;;5.00;99.90;;;;;;5030874;28;20179;-73
2024/01/21 12:26:18;;;;;;;9.13;8.13;;;5.00;99.90;;;;;;5032273;28;20549;-73
2024/01/21 12:28:57;;;;;;;8.97;8.07;;;5.00;99.90;;;;;;5013438;28;20294;-73